Time;durP1;ratioP1;P1;durP2;ratioP2;P2;SDS_P1;SDS_P2;PMS_P1;PMS_P2;Temp;Humidity;BMP_temperature;BMP_pressure;BME280_temperature;BME280_humidity;BME280_pressure;Samples;Min_cycle;Max_cycle;Signal;HPM_P1;HPM_P2
2021/04/11 00:00:37;;;;;;;4.97;3.45;;;3.90;91.70;;;;;;2081076;28;20034;-83
2021/04/11 00:01:39;;;;;;;5.10;3.60;;;3.90;91.70;;;;;;2086866;28;20152;-82
2021/04/11 00:02:39;;;;;;;4.88;3.33;;;3.90;91.70;;;;;;2083257;28;20361;-83
2021/04/11 00:03:40;;;;;;;4.80;3.63;;;3.90;91.60;;;;;;2067665;28;20037;-83
2021/04/11 00:04:41;;;;;;;5.03;3.78;;;3.90;91.60;;;;;;2063617;28;20034;-82
2021/04/11 00:05:43;;;;;;;4.97;3.58;;;3.80;91.60;;;;;;2081723;28;20124;-83
2021/04/11 00:06:43;;;;;;;5.72;4.00;;;3.90;91.60;;;;;;2074317;28;20479;-83
2021/04/11 00:07:44;;;;;;;7.18;3.78;;;3.90;91.60;;;;;;2073559;28;20030;-82
2021/04/11 00:08:45;;;;;;;5.88;3.97;;;3.90;91.60;;;;;;2072911;28;20108;-83
2021/04/11 00:09:45;;;;;;;5.75;3.97;;;3.80;91.60;;;;;;2064578;28;20608;-82
2021/04/11 00:10:49;;;;;;;4.88;3.30;;;3.80;91.60;;;;;;2073444;28;20396;-83
2021/04/11 00:11:50;;;;;;;5.35;3.50;;;3.80;91.60;;;;;;2089038;28;20505;-82
2021/04/11 00:12:50;;;;;;;4.38;3.10;;;3.90;91.70;;;;;;2081217;28;20025;-82
2021/04/11 00:13:54;;;;;;;4.95;3.50;;;3.90;91.60;;;;;;2081528;28;20415;-82
2021/04/11 00:14:54;;;;;;;5.28;3.67;;;3.90;91.60;;;;;;2079245;28;20021;-83
2021/04/11 00:15:55;;;;;;;3.90;2.88;;;3.90;91.60;;;;;;2080671;28;20061;-83
2021/04/11 00:16:56;;;;;;;4.70;3.22;;;3.80;91.60;;;;;;2085387;28;20036;-83
2021/04/11 00:17:57;;;;;;;5.13;3.50;;;3.80;91.60;;;;;;2081603;28;20025;-83
2021/04/11 00:18:57;;;;;;;5.55;3.70;;;3.80;91.60;;;;;;2073546;28;20026;-82
2021/04/11 00:19:58;;;;;;;5.30;3.40;;;3.80;91.60;;;;;;2073579;28;20025;-83
2021/04/11 00:21:02;;;;;;;4.68;3.33;;;3.80;91.60;;;;;;2070796;28;20034;-83
2021/04/11 00:22:02;;;;;;;4.78;3.47;;;3.80;91.60;;;;;;2073526;28;20101;-83
2021/04/11 00:23:04;;;;;;;4.82;3.20;;;3.80;91.70;;;;;;2082053;28;20037;-83
2021/04/11 00:24:05;;;;;;;5.30;3.72;;;3.80;91.70;;;;;;2086408;28;20035;-83
2021/04/11 00:25:11;;;;;;;5.60;3.53;;;3.80;91.60;;;;;;2085367;28;20123;-84
2021/04/11 00:26:11;;;;;;;5.38;3.80;;;3.80;91.60;;;;;;2087793;28;20025;-83
2021/04/11 00:27:12;;;;;;;6.35;4.03;;;3.80;91.60;;;;;;2087416;28;20035;-83
2021/04/11 00:28:14;;;;;;;4.75;3.40;;;3.70;91.60;;;;;;2080501;28;20029;-82
2021/04/11 00:29:15;;;;;;;5.40;3.78;;;3.80;91.70;;;;;;2080540;28;20479;-82
2021/04/11 00:30:18;;;;;;;4.95;3.50;;;3.80;91.70;;;;;;2073374;28;20041;-83
2021/04/11 00:31:20;;;;;;;5.20;3.45;;;3.80;91.70;;;;;;2073567;28;20030;-83
2021/04/11 00:32:20;;;;;;;4.75;3.50;;;3.70;91.60;;;;;;2076617;28;20475;-83
2021/04/11 00:33:26;;;;;;;6.63;3.42;;;3.70;91.60;;;;;;2077970;28;20037;-83
2021/04/11 00:34:27;;;;;;;5.03;3.30;;;3.70;91.60;;;;;;2088661;28;20058;-81
2021/04/11 00:35:28;;;;;;;4.55;3.40;;;3.70;91.60;;;;;;2089139;28;20071;-83
2021/04/11 00:36:29;;;;;;;4.78;3.17;;;3.70;91.70;;;;;;2078152;28;20026;-83
2021/04/11 00:37:29;;;;;;;4.75;3.42;;;3.80;91.70;;;;;;2080038;28;20033;-82
2021/04/11 00:38:31;;;;;;;4.88;3.50;;;3.80;91.70;;;;;;2077864;28;20104;-83
2021/04/11 00:39:31;;;;;;;4.85;3.20;;;3.80;91.60;;;;;;2090108;28;20021;-84
2021/04/11 00:40:37;;;;;;;4.50;3.30;;;3.80;91.60;;;;;;2079698;28;20450;-82
2021/04/11 00:41:45;;;;;;;4.75;3.33;;;3.80;91.60;;;;;;2078817;28;20041;-83
2021/04/11 00:42:52;;;;;;;6.20;3.53;;;3.80;91.90;;;;;;2081600;28;20014;-83
2021/04/11 00:43:53;;;;;;;5.28;3.63;;;3.80;91.60;;;;;;2088429;28;20111;-83
2021/04/11 00:45:15;;;;;;;4.50;3.55;;;3.80;91.60;;;;;;2088922;28;20024;-82
2021/04/11 00:46:33;;;;;;;4.90;3.40;;;3.70;91.50;;;;;;2088350;28;20364;-82
2021/04/11 00:47:34;;;;;;;4.68;3.30;;;3.70;91.60;;;;;;2089802;28;20033;-83
2021/04/11 00:48:35;;;;;;;6.00;3.83;;;3.80;91.80;;;;;;2072832;28;20034;-83
2021/04/11 00:49:46;;;;;;;6.38;4.65;;;3.70;91.50;;;;;;2072938;28;20459;-82
2021/04/11 00:51:03;;;;;;;5.07;3.78;;;3.70;91.60;;;;;;2082934;28;20025;-83
2021/04/11 00:52:07;;;;;;;5.78;3.90;;;3.70;91.60;;;;;;2088966;28;20041;-83
2021/04/11 00:53:08;;;;;;;5.60;3.90;;;3.70;91.60;;;;;;2085250;28;20025;-83
2021/04/11 00:54:09;;;;;;;4.85;3.80;;;3.70;91.60;;;;;;2081882;28;20056;-84
2021/04/11 00:55:10;;;;;;;5.35;3.70;;;3.60;91.60;;;;;;2084601;28;20025;-84
2021/04/11 00:56:12;;;;;;;6.15;4.00;;;3.60;91.60;;;;;;2072595;28;20030;-83
2021/04/11 00:57:14;;;;;;;5.47;3.80;;;3.60;91.60;;;;;;2081151;28;20048;-83
2021/04/11 00:58:16;;;;;;;6.00;3.80;;;3.60;91.60;;;;;;2080746;28;20029;-83
2021/04/11 00:59:18;;;;;;;5.13;4.10;;;3.60;91.60;;;;;;2081284;28;20036;-83
2021/04/11 01:00:26;;;;;;;5.65;3.97;;;3.60;91.60;;;;;;2081874;28;20064;-83
2021/04/11 01:01:26;;;;;;;5.07;3.58;;;3.60;91.60;;;;;;2080333;28;20171;-83
2021/04/11 01:02:28;;;;;;;4.85;3.10;;;3.60;91.70;;;;;;2086857;28;20564;-83
2021/04/11 01:03:34;;;;;;;4.05;3.13;;;3.60;91.70;;;;;;2065023;28;20061;-83
2021/04/11 01:04:36;;;;;;;4.70;3.10;;;3.60;91.70;;;;;;2067251;28;20019;-83
2021/04/11 01:05:41;;;;;;;4.65;3.42;;;3.60;91.70;;;;;;2066436;28;20030;-83
2021/04/11 01:06:46;;;;;;;4.65;3.35;;;3.60;91.70;;;;;;2072022;28;20669;-83
2021/04/11 01:07:48;;;;;;;5.45;3.67;;;3.60;91.70;;;;;;2081313;28;20026;-83
2021/04/11 01:08:51;;;;;;;5.03;3.83;;;3.60;91.70;;;;;;2073578;28;20029;-84
2021/04/11 01:09:53;;;;;;;6.00;4.07;;;3.60;91.70;;;;;;2057565;28;20019;-83
2021/04/11 01:11:09;;;;;;;5.80;4.05;;;3.60;91.60;;;;;;2070111;28;20064;-83
2021/04/11 01:12:13;;;;;;;6.15;3.80;;;3.60;91.60;;;;;;2082174;28;20084;-83
2021/04/11 01:13:16;;;;;;;4.60;3.47;;;3.60;91.70;;;;;;2083260;28;20041;-83
2021/04/11 01:14:17;;;;;;;5.22;3.78;;;3.60;91.60;;;;;;2065824;28;20476;-83
2021/04/11 01:15:27;;;;;;;5.72;3.90;;;3.60;91.60;;;;;;2063461;28;20034;-83
2021/04/11 01:16:29;;;;;;;4.97;3.58;;;3.60;91.70;;;;;;2073988;28;20030;-83
2021/04/11 01:17:30;;;;;;;5.72;4.03;;;3.60;91.70;;;;;;2073018;28;20033;-84
2021/04/11 01:18:31;;;;;;;5.93;4.03;;;3.50;91.70;;;;;;2070631;28;20113;-83
2021/04/11 01:19:35;;;;;;;5.18;3.88;;;3.50;91.60;;;;;;2056689;28;20031;-83
2021/04/11 01:20:36;;;;;;;5.68;4.28;;;3.50;91.60;;;;;;2075504;28;20014;-83
2021/04/11 01:22:28;;;;;;;6.60;4.05;;;3.50;91.60;;;;;;2080401;28;20487;-84
2021/04/11 01:23:47;;;;;;;5.28;3.90;;;3.50;91.60;;;;;;2064608;28;20026;-84
2021/04/11 01:25:14;;;;;;;5.53;4.15;;;3.50;91.60;;;;;;2080017;28;20462;-83
2021/04/11 01:26:17;;;;;;;5.72;4.10;;;3.50;91.60;;;;;;2076380;28;20034;-82
2021/04/11 01:27:31;;;;;;;6.28;4.10;;;3.50;91.50;;;;;;2073329;28;20030;-83
2021/04/11 01:28:40;;;;;;;6.18;4.35;;;3.50;91.50;;;;;;2080715;28;20087;-84
2021/04/11 01:29:42;;;;;;;5.43;3.92;;;3.50;91.60;;;;;;2074086;28;20033;-83
2021/04/11 01:30:44;;;;;;;6.20;4.70;;;3.40;91.60;;;;;;2072877;28;20428;-83
2021/04/11 01:31:45;;;;;;;6.07;4.50;;;3.50;91.60;;;;;;2083979;28;20032;-83
2021/04/11 01:32:47;;;;;;;6.45;4.50;;;3.40;91.60;;;;;;2089023;28;20063;-84
2021/04/11 01:33:52;;;;;;;5.70;4.25;;;3.40;91.60;;;;;;2072882;28;20026;-84
2021/04/11 01:34:55;;;;;;;5.47;4.20;;;3.40;91.70;;;;;;2075856;28;20050;-83
2021/04/11 01:35:57;;;;;;;5.38;3.90;;;3.40;91.70;;;;;;2081037;28;20089;-83
2021/04/11 01:37:00;;;;;;;5.75;4.10;;;3.40;91.70;;;;;;2077391;28;20088;-83
2021/04/11 01:38:02;;;;;;;5.50;3.83;;;3.40;91.70;;;;;;2074121;28;20057;-83
2021/04/11 01:39:08;;;;;;;5.30;3.85;;;3.40;91.70;;;;;;2071944;28;20032;-83
2021/04/11 01:40:13;;;;;;;5.57;4.00;;;3.40;91.70;;;;;;2071808;28;20017;-83
2021/04/11 01:41:24;;;;;;;5.45;3.90;;;3.40;91.70;;;;;;2079710;28;20490;-83
2021/04/11 01:42:25;;;;;;;4.85;3.60;;;3.40;91.70;;;;;;2088930;28;20532;-83
2021/04/11 01:43:26;;;;;;;5.10;3.75;;;3.40;91.60;;;;;;2072683;28;20030;-83
2021/04/11 01:44:31;;;;;;;6.57;4.03;;;3.40;91.60;;;;;;2064791;28;20423;-83
2021/04/11 01:45:34;;;;;;;4.68;3.00;;;3.50;91.60;;;;;;2070667;28;20030;-83
2021/04/11 01:46:35;;;;;;;5.22;3.45;;;3.50;91.60;;;;;;2076496;28;20037;-83
2021/04/11 01:47:36;;;;;;;4.47;3.50;;;3.50;91.60;;;;;;2080973;28;20018;-83
2021/04/11 01:48:37;;;;;;;5.00;3.60;;;3.50;91.60;;;;;;2080887;28;20029;-83
2021/04/11 01:49:38;;;;;;;6.35;3.50;;;3.50;91.60;;;;;;2087843;28;20067;-83
2021/04/11 01:50:40;;;;;;;5.50;4.10;;;3.50;91.60;;;;;;2072688;28;20030;-83
2021/04/11 01:51:46;;;;;;;4.63;3.45;;;3.50;91.60;;;;;;2080704;28;20034;-83
2021/04/11 01:52:47;;;;;;;5.40;3.63;;;3.50;91.60;;;;;;2081630;28;20017;-83
2021/04/11 01:53:50;;;;;;;5.00;3.45;;;3.50;91.60;;;;;;2064315;28;20054;-83
2021/04/11 01:54:51;;;;;;;4.13;3.08;;;3.50;91.60;;;;;;2077322;28;20025;-82
2021/04/11 01:55:53;;;;;;;4.63;3.20;;;3.50;91.60;;;;;;2084318;28;20025;-82
2021/04/11 01:56:54;;;;;;;4.50;3.28;;;3.50;91.60;;;;;;2084792;28;20139;-83
2021/04/11 01:57:56;;;;;;;4.68;3.25;;;3.50;91.60;;;;;;2088967;28;20029;-83
2021/04/11 01:58:57;;;;;;;4.43;2.95;;;3.50;91.60;;;;;;2080906;28;20503;-82
2021/04/11 02:00:11;;;;;;;4.28;3.13;;;3.50;91.80;;;;;;2075162;28;20026;-83
2021/04/11 02:01:24;;;;;;;5.45;3.75;;;3.50;91.60;;;;;;2074699;28;20476;-83
2021/04/11 02:02:25;;;;;;;5.10;3.67;;;3.50;91.60;;;;;;2075939;28;20248;-82
2021/04/11 02:03:26;;;;;;;5.60;3.72;;;3.50;91.60;;;;;;2072531;28;20030;-83
2021/04/11 02:04:26;;;;;;;4.70;3.20;;;3.50;91.50;;;;;;2069782;28;20522;-81
2021/04/11 02:05:27;;;;;;;5.05;3.33;;;3.50;91.50;;;;;;2072040;28;20030;-83
2021/04/11 02:06:30;;;;;;;5.00;3.42;;;3.50;91.60;;;;;;2061926;28;20022;-83
2021/04/11 02:07:30;;;;;;;3.97;3.13;;;3.50;91.60;;;;;;2066795;28;20027;-83
2021/04/11 02:08:32;;;;;;;4.45;3.30;;;3.50;91.60;;;;;;2064540;28;20555;-83
2021/04/11 02:09:37;;;;;;;4.30;3.10;;;3.60;91.60;;;;;;2066927;28;20030;-83
2021/04/11 02:10:43;;;;;;;4.50;2.80;;;3.60;91.60;;;;;;2073244;28;20026;-84
2021/04/11 02:11:46;;;;;;;5.10;3.70;;;3.60;91.60;;;;;;2073218;28;20108;-83
2021/04/11 02:12:47;;;;;;;4.13;2.80;;;3.60;91.60;;;;;;2072955;28;20063;-83
2021/04/11 02:13:48;;;;;;;3.85;2.83;;;3.60;91.60;;;;;;2071505;28;20508;-83
2021/04/11 02:14:48;;;;;;;4.70;2.90;;;3.60;91.60;;;;;;2069745;28;20026;-83
2021/04/11 02:15:52;;;;;;;4.72;3.38;;;3.60;91.60;;;;;;2080889;28;20056;-83
2021/04/11 02:16:55;;;;;;;4.88;3.15;;;3.60;91.50;;;;;;2081923;28;20037;-83
2021/04/11 02:17:57;;;;;;;4.38;2.85;;;3.60;91.50;;;;;;2067642;28;20037;-83
2021/04/11 02:19:05;;;;;;;4.55;3.22;;;3.60;91.50;;;;;;2080956;28;20018;-83
2021/04/11 02:20:10;;;;;;;4.93;3.30;;;3.60;91.50;;;;;;2088128;28;20422;-83
2021/04/11 02:21:17;;;;;;;4.78;3.10;;;3.60;91.50;;;;;;2082484;28;20120;-83
2021/04/11 02:22:29;;;;;;;4.05;2.90;;;3.60;91.80;;;;;;2080884;28;20029;-83
2021/04/11 02:23:30;;;;;;;3.88;2.90;;;3.60;91.50;;;;;;2080950;28;20040;-83
2021/04/11 02:24:32;;;;;;;4.65;3.17;;;3.60;91.50;;;;;;2083060;28;20025;-83
2021/04/11 02:25:39;;;;;;;4.22;2.90;;;3.60;91.50;;;;;;2080841;28;20643;-83
2021/04/11 02:26:41;;;;;;;5.07;3.40;;;3.70;91.50;;;;;;2076616;28;20034;-83
2021/04/11 02:27:42;;;;;;;5.22;2.92;;;3.60;91.50;;;;;;2089006;28;20017;-83
2021/04/11 02:28:44;;;;;;;5.47;3.20;;;3.60;91.50;;;;;;2080860;28;20480;-83
2021/04/11 02:29:45;;;;;;;4.57;3.00;;;3.60;91.50;;;;;;2077091;28;20022;-83
2021/04/11 02:31:16;;;;;;;4.45;3.22;;;3.60;91.50;;;;;;2072667;28;20026;-83
2021/04/11 02:32:17;;;;;;;4.05;2.90;;;3.60;91.50;;;;;;2080286;28;20027;-82
2021/04/11 02:33:19;;;;;;;4.47;3.20;;;3.60;91.50;;;;;;2072362;28;20030;-83
2021/04/11 02:34:26;;;;;;;5.20;3.25;;;3.60;91.50;;;;;;2065929;28;20017;-83
2021/04/11 02:35:28;;;;;;;4.70;2.95;;;3.60;91.50;;;;;;2065924;28;20031;-83
2021/04/11 02:36:41;;;;;;;4.28;3.15;;;3.60;91.50;;;;;;2078639;28;20108;-84
2021/04/11 02:37:45;;;;;;;6.28;3.72;;;3.60;91.50;;;;;;2082656;28;20315;-83
2021/04/11 02:38:51;;;;;;;4.72;3.33;;;3.60;91.50;;;;;;2073213;28;20085;-84
2021/04/11 02:39:56;;;;;;;4.97;3.60;;;3.60;91.50;;;;;;2081568;28;20040;-84
2021/04/11 02:40:58;;;;;;;4.63;3.55;;;3.60;91.50;;;;;;2071686;28;20432;-83
2021/04/11 02:42:05;;;;;;;5.13;3.50;;;3.60;91.50;;;;;;2073869;28;20121;-83
2021/04/11 02:43:08;;;;;;;5.90;3.70;;;3.60;91.50;;;;;;2090595;28;20464;-83
2021/04/11 02:44:10;;;;;;;4.75;3.55;;;3.60;91.50;;;;;;2074202;28;20018;-82
2021/04/11 02:45:16;;;;;;;4.32;2.95;;;3.60;91.80;;;;;;2082115;28;20033;-82
2021/04/11 02:46:17;;;;;;;4.43;3.20;;;3.60;91.50;;;;;;2083499;28;20036;-83
2021/04/11 02:47:19;;;;;;;4.18;3.03;;;3.60;91.60;;;;;;2089540;28;20056;-83
2021/04/11 02:48:19;;;;;;;4.63;3.20;;;3.60;91.60;;;;;;2081763;28;20092;-83
2021/04/11 02:49:22;;;;;;;4.70;3.40;;;3.60;91.80;;;;;;2068408;28;20089;-83
2021/04/11 02:50:27;;;;;;;4.32;3.10;;;3.60;91.60;;;;;;2076838;28;20026;-83
2021/04/11 02:51:32;;;;;;;4.57;3.22;;;3.60;91.60;;;;;;2081977;28;20028;-84
2021/04/11 02:52:39;;;;;;;4.18;2.90;;;3.60;91.60;;;;;;2074222;28;20058;-83
2021/04/11 02:53:41;;;;;;;3.75;2.83;;;3.60;91.60;;;;;;2077512;28;20014;-84
2021/04/11 02:54:42;;;;;;;4.65;3.00;;;3.60;91.60;;;;;;2075515;28;20037;-83
2021/04/11 02:55:43;;;;;;;4.15;2.80;;;3.60;91.60;;;;;;2073985;28;20018;-83
2021/04/11 02:56:44;;;;;;;4.00;2.88;;;3.60;91.70;;;;;;2074028;28;20046;-84
2021/04/11 02:57:45;;;;;;;3.92;2.85;;;3.60;91.60;;;;;;2086834;28;20021;-83
2021/04/11 02:58:47;;;;;;;3.30;2.50;;;3.60;91.60;;;;;;2076664;28;20057;-83
2021/04/11 02:59:51;;;;;;;3.20;2.38;;;3.60;91.90;;;;;;2071908;28;20676;-82
2021/04/11 03:01:04;;;;;;;3.85;2.33;;;3.60;91.70;;;;;;2081051;28;20462;-83
2021/04/11 03:02:05;;;;;;;3.50;2.55;;;3.60;91.70;;;;;;2083969;28;20080;-82
2021/04/11 03:03:06;;;;;;;3.20;2.50;;;3.60;91.60;;;;;;2080031;28;20037;-83
2021/04/11 03:04:06;;;;;;;3.90;2.33;;;3.60;91.60;;;;;;2049927;28;20039;-83
2021/04/11 03:05:09;;;;;;;2.83;2.10;;;3.60;91.90;;;;;;2075847;28;20022;-83
2021/04/11 03:06:18;;;;;;;2.83;2.00;;;3.60;91.60;;;;;;2094658;28;20029;-83
2021/04/11 03:07:36;;;;;;;3.63;2.13;;;3.60;91.60;;;;;;2084310;28;20025;-83
2021/04/11 03:08:38;;;;;;;3.50;2.10;;;3.60;91.60;;;;;;2087607;28;20057;-84
2021/04/11 03:10:19;;;;;;;3.10;1.92;;;3.60;91.60;;;;;;2087898;28;20112;-83
2021/04/11 03:11:28;;;;;;;;;;;3.70;91.60;;;;;;2086619;28;20029;-83
2021/04/11 03:12:29;;;;;;;3.20;1.88;;;3.60;91.50;;;;;;2083030;28;19998;-83
2021/04/11 03:13:30;;;;;;;2.97;1.63;;;3.70;91.80;;;;;;2073816;28;20034;-83
2021/04/11 03:14:36;;;;;;;2.42;1.60;;;3.60;91.50;;;;;;2074237;28;20042;-83
2021/04/11 03:15:37;;;;;;;2.22;1.58;;;3.60;91.50;;;;;;2075818;28;20033;-83
2021/04/11 03:16:40;;;;;;;3.25;1.88;;;3.60;91.50;;;;;;2073519;28;20026;-83
2021/04/11 03:17:43;;;;;;;2.42;1.80;;;3.70;91.50;;;;;;2079406;28;20113;-83
2021/04/11 03:18:44;;;;;;;2.53;1.60;;;3.60;91.50;;;;;;2088599;28;20020;-83
2021/04/11 03:19:55;;;;;;;2.20;1.60;;;3.60;91.30;;;;;;2085068;28;20034;-83
2021/04/11 03:20:57;;;;;;;1.95;1.40;;;3.70;91.60;;;;;;2077894;28;20029;-83
2021/04/11 03:21:58;;;;;;;2.55;1.70;;;3.70;91.60;;;;;;2081692;28;20041;-83
2021/04/11 03:23:00;;;;;;;3.10;1.33;;;3.70;91.60;;;;;;2081743;28;20025;-83
2021/04/11 03:24:03;;;;;;;1.55;1.20;;;3.70;91.50;;;;;;2079192;28;20041;-83
2021/04/11 03:25:05;;;;;;;2.15;1.30;;;3.70;91.50;;;;;;2082422;28;20161;-83
2021/04/11 03:26:30;;;;;;;1.70;1.40;;;3.70;91.50;;;;;;2081591;28;20032;-83
2021/04/11 03:27:46;;;;;;;1.73;1.40;;;3.70;91.50;;;;;;2077643;28;20044;-83
2021/04/11 03:28:53;;;;;;;1.63;1.13;;;3.70;91.50;;;;;;2089994;28;20422;-83
2021/04/11 03:30:04;;;;;;;1.90;1.38;;;3.70;91.50;;;;;;2082091;28;20035;-82
2021/04/11 03:31:26;;;;;;;;;;;3.70;91.50;;;;;;2082309;28;20498;-83
2021/04/11 03:32:49;;;;;;;2.15;1.10;;;3.80;91.50;;;;;;2089227;28;20326;-83
2021/04/11 03:33:56;;;;;;;1.95;1.25;;;3.70;91.40;;;;;;2077750;28;20025;-83
2021/04/11 03:34:59;;;;;;;1.73;1.20;;;3.70;91.40;;;;;;2081994;28;20124;-83
2021/04/11 03:36:01;;;;;;;1.40;1.00;;;3.70;91.40;;;;;;2083974;28;20029;-84
2021/04/11 03:37:03;;;;;;;1.77;1.10;;;3.70;91.40;;;;;;2076055;28;20045;-83
2021/04/11 03:38:05;;;;;;;1.55;1.08;;;3.60;91.50;;;;;;2076283;28;20030;-83
2021/04/11 03:39:07;;;;;;;1.75;1.10;;;3.70;91.50;;;;;;2078615;28;20057;-83
2021/04/11 03:40:15;;;;;;;1.58;1.02;;;3.70;91.50;;;;;;2086189;28;20097;-84
2021/04/11 03:41:18;;;;;;;1.80;1.23;;;3.70;91.50;;;;;;2088239;28;20017;-83
2021/04/11 03:42:22;;;;;;;2.40;1.13;;;3.70;91.50;;;;;;2086814;28;20029;-83
2021/04/11 03:43:33;;;;;;;1.27;0.90;;;3.70;91.50;;;;;;2090369;28;20493;-83
2021/04/11 03:44:35;;;;;;;0.90;0.80;;;3.70;91.60;;;;;;2077325;28;20088;-83
2021/04/11 03:45:36;;;;;;;1.10;1.00;;;3.70;91.60;;;;;;2082066;28;20022;-83
2021/04/11 03:46:53;;;;;;;1.55;0.90;;;3.70;91.60;;;;;;2075866;28;20028;-83
2021/04/11 03:48:05;;;;;;;1.40;1.10;;;3.70;91.60;;;;;;2074927;28;20116;-82
2021/04/11 03:49:12;;;;;;;1.52;1.02;;;3.70;91.50;;;;;;2075197;28;20579;-82
2021/04/11 03:50:22;;;;;;;1.15;0.90;;;3.70;91.50;;;;;;2074243;28;20026;-82
2021/04/11 03:51:27;;;;;;;1.73;1.05;;;3.70;91.50;;;;;;2085271;28;20028;-82
2021/04/11 03:52:31;;;;;;;1.10;0.90;;;3.70;91.50;;;;;;2088943;28;20021;-83
2021/04/11 03:53:31;;;;;;;1.98;1.25;;;3.70;91.60;;;;;;2080850;28;20402;-83
2021/04/11 03:54:39;;;;;;;1.50;1.10;;;3.70;91.50;;;;;;2081317;28;20025;-83
2021/04/11 03:55:44;;;;;;;1.58;1.30;;;3.70;91.50;;;;;;2076890;28;20026;-84
2021/04/11 03:56:49;;;;;;;1.00;0.90;;;3.70;91.50;;;;;;2073503;28;20036;-83
2021/04/11 03:57:54;;;;;;;1.15;0.90;;;3.70;91.50;;;;;;2078700;28;20483;-84
2021/04/11 03:58:59;;;;;;;1.58;1.00;;;3.70;91.50;;;;;;2077086;28;20041;-84
2021/04/11 04:00:05;;;;;;;1.33;0.90;;;3.70;91.50;;;;;;2076081;28;20025;-83
2021/04/11 04:01:16;;;;;;;1.30;1.00;;;3.70;91.50;;;;;;2079813;28;20582;-84
2021/04/11 04:02:19;;;;;;;1.95;0.98;;;3.70;91.50;;;;;;2080733;28;20517;-82
2021/04/11 04:03:23;;;;;;;1.10;0.90;;;3.70;91.50;;;;;;2074205;28;20018;-84
2021/04/11 04:04:25;;;;;;;1.00;0.80;;;3.70;91.50;;;;;;2075453;28;20056;-82
2021/04/11 04:05:29;;;;;;;1.10;0.90;;;3.70;91.50;;;;;;2079241;28;20025;-83
2021/04/11 04:06:33;;;;;;;1.15;0.90;;;3.80;91.50;;;;;;2087825;28;20021;-83
2021/04/11 04:07:51;;;;;;;1.17;0.93;;;3.70;91.50;;;;;;2081918;28;20037;-82
2021/04/11 04:08:51;;;;;;;1.50;1.00;;;3.80;91.50;;;;;;2090012;28;20027;-83
2021/04/11 04:09:59;;;;;;;1.45;0.98;;;3.80;91.80;;;;;;2072928;28;20030;-82
2021/04/11 04:11:33;;;;;;;1.17;0.95;;;3.80;91.50;;;;;;2073896;28;20029;-82
2021/04/11 04:12:45;;;;;;;0.88;0.70;;;3.80;91.50;;;;;;2064757;28;20054;-83
2021/04/11 04:14:10;;;;;;;2.15;0.90;;;3.80;91.50;;;;;;2080910;28;20041;-83
2021/04/11 04:15:47;;;;;;;1.33;0.85;;;3.80;91.40;;;;;;2076549;28;20060;-83
2021/04/11 04:17:17;;;;;;;1.50;0.90;;;3.80;91.40;;;;;;2081623;28;20468;-83
2021/04/11 04:18:35;;;;;;;0.85;0.80;;;3.80;91.40;;;;;;2081261;28;20430;-84
2021/04/11 04:19:56;;;;;;;0.90;0.70;;;3.80;91.40;;;;;;2083997;28;20087;-83
2021/04/11 04:21:00;;;;;;;0.93;0.60;;;3.80;91.30;;;;;;2084441;28;20489;-82
2021/04/11 04:22:25;;;;;;;1.52;1.00;;;3.80;91.30;;;;;;2084317;28;20487;-82
2021/04/11 04:24:03;;;;;;;1.23;0.65;;;3.80;91.30;;;;;;2081500;28;20064;-83
2021/04/11 04:25:51;;;;;;;1.38;0.80;;;3.80;91.30;;;;;;2081206;28;20072;-82
2021/04/11 04:26:56;;;;;;;0.70;0.60;;;3.80;91.30;;;;;;2064874;28;20041;-82
2021/04/11 04:28:14;;;;;;;1.17;0.70;;;3.80;91.30;;;;;;2063822;28;20089;-82
2021/04/11 04:29:44;;;;;;;1.33;0.80;;;3.80;91.30;;;;;;2076108;28;20087;-83
2021/04/11 04:31:02;;;;;;;0.82;0.75;;;3.80;91.30;;;;;;2078813;28;20030;-83
2021/04/11 04:32:43;;;;;;;1.10;0.65;;;3.80;91.30;;;;;;2084841;28;20565;-82
2021/04/11 04:34:12;;;;;;;1.35;0.88;;;3.80;91.30;;;;;;2085607;28;20123;-82
2021/04/11 04:35:44;;;;;;;0.80;0.70;;;3.80;91.30;;;;;;2056729;28;20070;-82
2021/04/11 04:37:08;;;;;;;1.23;0.70;;;3.80;91.30;;;;;;2092825;28;20078;-83
2021/04/11 04:38:29;;;;;;;1.08;0.85;;;3.80;91.30;;;;;;2092322;28;20033;-83
2021/04/11 04:39:41;;;;;;;1.17;0.80;;;3.80;91.30;;;;;;2081109;28;20523;-82
2021/04/11 04:40:42;;;;;;;1.35;0.80;;;3.80;91.30;;;;;;2081557;28;20108;-83
2021/04/11 04:42:08;;;;;;;1.05;0.85;;;3.80;91.30;;;;;;2081928;28;20076;-83
2021/04/11 04:43:24;;;;;;;1.13;0.75;;;3.80;91.30;;;;;;2078263;28;20048;-83
2021/04/11 04:44:36;;;;;;;1.10;1.00;;;3.80;91.40;;;;;;2082093;28;20434;-82
2021/04/11 04:45:49;;;;;;;1.42;0.90;;;3.80;91.40;;;;;;2081431;28;20116;-83
2021/04/11 04:47:17;;;;;;;1.77;0.90;;;3.80;91.40;;;;;;2081767;28;20072;-83
2021/04/11 04:48:28;;;;;;;1.95;0.90;;;3.80;91.40;;;;;;2083423;28;20024;-82
2021/04/11 04:50:01;;;;;;;1.35;1.13;;;3.80;91.40;;;;;;2074367;28;20022;-83
2021/04/11 04:51:35;;;;;;;1.48;0.93;;;3.90;91.40;;;;;;2081413;28;20483;-82
2021/04/11 04:52:36;;;;;;;2.10;0.90;;;3.90;91.40;;;;;;2087391;28;20061;-83
2021/04/11 04:54:06;;;;;;;1.58;0.90;;;3.90;91.30;;;;;;2072296;28;20029;-82
2021/04/11 04:55:15;;;;;;;0.98;0.70;;;3.90;91.30;;;;;;2080287;28;20017;-83
2021/04/11 04:56:25;;;;;;;1.50;0.90;;;3.90;91.30;;;;;;2087902;28;20024;-83
2021/04/11 04:57:58;;;;;;;1.42;0.70;;;3.90;91.30;;;;;;2085148;28;20036;-82
2021/04/11 04:59:04;;;;;;;1.35;0.90;;;3.90;91.40;;;;;;2077189;28;20518;-83
2021/04/11 05:00:08;;;;;;;0.70;0.60;;;3.90;91.30;;;;;;2075644;28;20029;-82
2021/04/11 05:01:25;;;;;;;1.10;0.80;;;3.90;91.30;;;;;;2076335;28;20037;-82
2021/04/11 05:02:33;;;;;;;1.73;0.95;;;3.90;91.30;;;;;;2091532;28;20033;-82
2021/04/11 05:03:41;;;;;;;1.75;0.95;;;3.90;91.30;;;;;;2090997;28;20033;-82
2021/04/11 05:04:50;;;;;;;1.33;0.90;;;3.90;91.30;;;;;;2085520;28;20021;-83
2021/04/11 05:05:59;;;;;;;1.10;0.70;;;4.00;91.40;;;;;;2073954;28;20487;-83
2021/04/11 05:07:13;;;;;;;1.00;0.70;;;4.00;91.30;;;;;;2085380;28;20569;-82
2021/04/11 05:08:22;;;;;;;1.55;0.90;;;4.00;91.30;;;;;;2075249;28;20108;-82
2021/04/11 05:09:41;;;;;;;1.10;0.95;;;4.00;91.50;;;;;;2081574;28;20017;-82
2021/04/11 05:11:19;;;;;;;2.03;1.00;;;4.00;91.60;;;;;;2078341;28;20026;-83
2021/04/11 05:12:42;;;;;;;1.05;0.70;;;4.00;91.30;;;;;;2059021;28;20062;-82
2021/04/11 05:13:50;;;;;;;2.17;1.20;;;4.00;91.30;;;;;;2077645;28;20419;-83
2021/04/11 05:14:57;;;;;;;2.05;1.10;;;4.00;91.20;;;;;;2079084;28;20040;-82
2021/04/11 05:16:07;;;;;;;2.00;1.00;;;4.00;91.20;;;;;;2081866;28;20048;-82
2021/04/11 05:17:17;;;;;;;1.45;1.00;;;4.00;91.20;;;;;;2088171;28;20402;-82
2021/04/11 05:18:40;;;;;;;2.58;1.20;;;4.00;91.40;;;;;;2069399;28;20030;-82
2021/04/11 05:19:44;;;;;;;1.60;0.93;;;4.00;91.40;;;;;;2071772;28;20044;-83
2021/04/11 05:20:51;;;;;;;1.30;0.80;;;4.00;91.30;;;;;;2073034;28;20484;-83
2021/04/11 05:22:01;;;;;;;1.52;1.10;;;4.00;91.30;;;;;;2072352;28;20032;-83
2021/04/11 05:23:26;;;;;;;1.85;0.98;;;4.00;91.30;;;;;;2070001;28;20505;-82
2021/04/11 05:24:39;;;;;;;1.35;0.90;;;4.00;91.30;;;;;;2078165;28;20059;-83
2021/04/11 05:25:47;;;;;;;1.50;0.90;;;4.00;91.30;;;;;;2081650;28;20029;-83
2021/04/11 05:26:53;;;;;;;1.95;1.08;;;4.00;91.30;;;;;;2077554;28;20120;-83
2021/04/11 05:28:08;;;;;;;1.33;0.90;;;4.00;91.30;;;;;;2073489;28;20067;-83
2021/04/11 05:29:30;;;;;;;2.65;0.90;;;4.00;91.30;;;;;;2080997;28;20442;-83
2021/04/11 05:30:35;;;;;;;1.20;0.80;;;4.00;91.30;;;;;;2081109;28;20037;-83
2021/04/11 05:31:38;;;;;;;1.48;0.93;;;4.00;91.30;;;;;;2083990;28;20027;-83
2021/04/11 05:32:39;;;;;;;2.13;1.05;;;4.00;91.20;;;;;;2085148;28;20052;-83
2021/04/11 05:33:44;;;;;;;1.50;0.80;;;4.10;91.30;;;;;;2077475;28;20030;-83
2021/04/11 05:34:44;;;;;;;1.80;1.00;;;4.10;91.30;;;;;;2065628;28;20029;-83
2021/04/11 05:35:47;;;;;;;1.00;0.82;;;4.10;91.30;;;;;;2072793;28;20128;-83
2021/04/11 05:37:01;;;;;;;2.15;1.00;;;4.10;91.30;;;;;;2071077;28;20080;-83
2021/04/11 05:38:25;;;;;;;1.45;0.90;;;4.10;91.30;;;;;;2081241;28;20093;-83
2021/04/11 05:39:37;;;;;;;1.65;0.90;;;4.10;91.30;;;;;;2056124;28;20043;-83
2021/04/11 05:40:44;;;;;;;1.17;0.90;;;4.00;91.30;;;;;;2082359;28;20087;-83
2021/04/11 05:41:57;;;;;;;1.83;1.00;;;4.10;91.30;;;;;;2085270;28;20029;-83
2021/04/11 05:43:01;;;;;;;1.42;1.00;;;4.10;91.30;;;;;;2087282;28;20029;-83
2021/04/11 05:44:09;;;;;;;1.38;0.98;;;4.10;91.30;;;;;;2086277;28;20430;-83
2021/04/11 05:45:27;;;;;;;2.28;0.90;;;4.10;91.30;;;;;;2082700;28;20025;-83
2021/04/11 05:46:37;;;;;;;2.30;0.80;;;4.10;91.30;;;;;;2084202;28;20025;-83
2021/04/11 05:47:58;;;;;;;;;;;4.10;91.30;;;;;;2084651;28;20475;-83
2021/04/11 05:49:05;;;;;;;1.75;0.70;;;4.10;91.20;;;;;;2070553;28;19958;-84
2021/04/11 05:50:18;;;;;;;1.00;0.70;;;4.10;91.20;;;;;;2077980;28;20022;-83
2021/04/11 05:51:35;;;;;;;1.85;1.10;;;4.10;91.20;;;;;;2081431;28;20029;-82
2021/04/11 05:52:40;;;;;;;2.05;1.00;;;4.10;91.20;;;;;;2080049;28;20388;-83
2021/04/11 05:53:48;;;;;;;2.10;1.20;;;4.10;91.20;;;;;;2076959;28;20028;-83
2021/04/11 05:54:55;;;;;;;1.75;0.90;;;4.10;91.20;;;;;;2087253;28;20475;-83
2021/04/11 05:56:01;;;;;;;2.03;1.05;;;4.10;91.20;;;;;;2081305;28;20387;-83
2021/04/11 05:57:10;;;;;;;1.85;0.90;;;4.20;91.20;;;;;;2085844;28;20040;-83